Avoca, IA

11:45 PM CDT on October 21, 2014 (GMT -0500)
Harlan Municipal | Change Station
CLOSE
Current Station
Airport
Location: Harlan,
Elevation: 1230 ft
Nearby Weather Stations

Elev 1230 ft 41.58 °N, 95.34 °W | Updated 10 minutes ago

Partly Cloudy
Partly Cloudy
54 °F
Feels Like 54 °F
N
7
Wind Variable Wind from SSE

Today
High -- | Low -- °F
--% Chance of Precip.
Yesterday
High -- | Low -- °F
Precip. -- in
7:40 AM 6:31 PM
Waning Crescent, 3% visible
Pressure 30.15 in
Visibility 10.0 miles
Clouds Scattered Clouds 5500 ft
Dew Point 46 °F
Humidity 77%
Rainfall 0.00 in
Snow Depth Not available.
UV 0 out of 12
Pollen 3.00 out of 12
Air Quality Not available.
Flu Activity Not available.
METAR KHNR 220435Z AUTO 15006KT 10SM SCT055 12/08 A3015 RMK AO2

More Conditions Fewer Conditions

Pressure 30.15 in
Visibility 10.0 miles
Clouds Scattered Clouds 5500 ft
Dew Point 46 °F
Humidity 77%
Rainfall 0.00 in
Snow Depth Not available.
UV 0 out of 12
Pollen 3.00 out of 12
Air Quality Not available.
Flu Activity Not available.
METAR KHNR 220435Z AUTO 15006KT 10SM SCT055 12/08 A3015 RMK AO2

More Conditions Fewer Conditions

10-Day Weather Forecast

Almanac

Astronomy

Oct. 21, 2014 Rise Set
Actual Time 7:40 AM CDT 6:31 PM CDT
Civil Twilight 7:11 AM CDT 6:59 PM CDT
Nautical Twilight 6:39 AM CDT 7:31 PM CDT
Astronomical Twilight 6:07 AM CDT 8:03 PM CDT
Moon 5:23 AM CDT (10/21) 5:26 PM CDT (10/21)
Length of Visible Light 11h 47m
Length of Day
10h 51m
Tomorrow will be 2m 36s shorter.
Waning Crescent, 3% of the Moon is Illuminated
Oct 22
Waning Crescent
Oct 23
New
Oct 30
First Quarter
Nov 6
Full
Nov 14
Last Quarter

Yesterday's Extremes

State Highs State Lows

Community

WunderPhotos

Upload Photos

1,763,882 photos uploaded!

Nearby

Snow Depth

Station Depth Elevation
No new snow has been reported.

Earthquake Activity

City Distance Mag. Time & Date
No recent earthquake activity has been reported nearby.
Minimum magnitude displayed is 2.5.

Coastal Water Temperatures

Place Temperature
No Stations Reporting

Nearby Weather Stations